sensor_id;sensor_type;location;lat;lon;timestamp;pressure;altitude;pressure_sealevel;temperature;humidity
81641;BME280;74020;50.722;-1.944;2024-01-30T00:00:45;101652.05;;;9.58;100.00
81641;BME280;74020;50.722;-1.944;2024-01-30T00:03:10;101659.94;;;9.53;100.00
81641;BME280;74020;50.722;-1.944;2024-01-30T00:05:35;101670.04;;;9.63;100.00
81641;BME280;74020;50.722;-1.944;2024-01-30T00:08:01;101686.07;;;9.77;100.00
81641;BME280;74020;50.722;-1.944;2024-01-30T00:10:28;101696.22;;;9.82;100.00
81641;BME280;74020;50.722;-1.944;2024-01-30T00:12:52;101704.59;;;9.81;100.00
81641;BME280;74020;50.722;-1.944;2024-01-30T00:15:17;101695.15;;;9.71;100.00
81641;BME280;74020;50.722;-1.944;2024-01-30T00:17:42;101692.19;;;9.52;100.00
81641;BME280;74020;50.722;-1.944;2024-01-30T00:20:09;101688.42;;;9.62;100.00
81641;BME280;74020;50.722;-1.944;2024-01-30T00:22:33;101686.56;;;9.55;100.00
81641;BME280;74020;50.722;-1.944;2024-01-30T00:24:58;101683.41;;;9.58;100.00
81641;BME280;74020;50.722;-1.944;2024-01-30T00:27:24;101679.96;;;9.57;100.00
81641;BME280;74020;50.722;-1.944;2024-01-30T00:29:49;101677.50;;;9.56;100.00
81641;BME280;74020;50.722;-1.944;2024-01-30T00:32:14;101685.43;;;9.47;100.00
81641;BME280;74020;50.722;-1.944;2024-01-30T00:34:41;101689.01;;;9.70;100.00
81641;BME280;74020;50.722;-1.944;2024-01-30T00:37:06;101690.94;;;9.66;100.00
81641;BME280;74020;50.722;-1.944;2024-01-30T00:39:31;101701.01;;;9.66;100.00
81641;BME280;74020;50.722;-1.944;2024-01-30T00:41:56;101698.48;;;9.66;100.00
81641;BME280;74020;50.722;-1.944;2024-01-30T00:44:22;101698.06;;;9.63;100.00
81641;BME280;74020;50.722;-1.944;2024-01-30T00:46:47;101690.55;;;9.65;100.00
81641;BME280;74020;50.722;-1.944;2024-01-30T00:49:13;101687.39;;;9.57;100.00
81641;BME280;74020;50.722;-1.944;2024-01-30T00:51:38;101681.71;;;9.53;100.00
81641;BME280;74020;50.722;-1.944;2024-01-30T00:54:04;101679.00;;;9.54;100.00
81641;BME280;74020;50.722;-1.944;2024-01-30T00:56:29;101677.28;;;9.56;100.00
81641;BME280;74020;50.722;-1.944;2024-01-30T00:58:55;101673.45;;;9.63;100.00
81641;BME280;74020;50.722;-1.944;2024-01-30T01:01:20;101672.17;;;9.65;100.00
81641;BME280;74020;50.722;-1.944;2024-01-30T01:03:45;101669.60;;;9.71;100.00
81641;BME280;74020;50.722;-1.944;2024-01-30T01:06:11;101669.94;;;9.74;100.00
81641;BME280;74020;50.722;-1.944;2024-01-30T01:08:36;101668.91;;;9.72;100.00
81641;BME280;74020;50.722;-1.944;2024-01-30T01:11:01;101661.21;;;9.61;100.00
81641;BME280;74020;50.722;-1.944;2024-01-30T01:13:27;101666.15;;;9.72;100.00
81641;BME280;74020;50.722;-1.944;2024-01-30T01:15:52;101666.32;;;9.78;100.00
81641;BME280;74020;50.722;-1.944;2024-01-30T01:18:18;101669.73;;;9.67;100.00
81641;BME280;74020;50.722;-1.944;2024-01-30T01:20:43;101669.03;;;9.84;100.00
81641;BME280;74020;50.722;-1.944;2024-01-30T01:23:09;101667.36;;;9.93;100.00
81641;BME280;74020;50.722;-1.944;2024-01-30T01:25:34;101675.88;;;10.00;100.00
81641;BME280;74020;50.722;-1.944;2024-01-30T01:27:59;101678.04;;;9.98;100.00
81641;BME280;74020;50.722;-1.944;2024-01-30T01:30:27;101680.99;;;9.99;100.00
81641;BME280;74020;50.722;-1.944;2024-01-30T01:32:50;101684.38;;;10.11;100.00
81641;BME280;74020;50.722;-1.944;2024-01-30T01:35:15;101684.67;;;10.11;100.00
81641;BME280;74020;50.722;-1.944;2024-01-30T01:37:41;101685.29;;;10.11;100.00
81641;BME280;74020;50.722;-1.944;2024-01-30T01:40:07;101682.07;;;9.95;100.00
81641;BME280;74020;50.722;-1.944;2024-01-30T01:42:32;101683.66;;;10.19;100.00
81641;BME280;74020;50.722;-1.944;2024-01-30T01:44:57;101688.45;;;10.16;100.00
81641;BME280;74020;50.722;-1.944;2024-01-30T01:47:22;101685.14;;;10.14;100.00
81641;BME280;74020;50.722;-1.944;2024-01-30T01:49:48;101688.48;;;10.04;100.00
81641;BME280;74020;50.722;-1.944;2024-01-30T01:52:13;101692.30;;;9.95;100.00
81641;BME280;74020;50.722;-1.944;2024-01-30T01:54:39;101693.54;;;10.15;100.00
81641;BME280;74020;50.722;-1.944;2024-01-30T01:57:04;101692.73;;;10.15;100.00
81641;BME280;74020;50.722;-1.944;2024-01-30T01:59:29;101700.26;;;10.14;100.00
81641;BME280;74020;50.722;-1.944;2024-01-30T02:01:57;101706.65;;;10.14;99.03
81641;BME280;74020;50.722;-1.944;2024-01-30T02:04:20;101712.96;;;10.08;98.11
81641;BME280;74020;50.722;-1.944;2024-01-30T02:06:46;101720.66;;;9.99;98.40
81641;BME280;74020;50.722;-1.944;2024-01-30T02:09:11;101728.54;;;9.83;99.11
81641;BME280;74020;50.722;-1.944;2024-01-30T02:11:36;101738.97;;;9.88;97.99
81641;BME280;74020;50.722;-1.944;2024-01-30T02:14:03;101742.23;;;9.88;97.86
81641;BME280;74020;50.722;-1.944;2024-01-30T02:16:27;101738.10;;;9.95;96.37
81641;BME280;74020;50.722;-1.944;2024-01-30T02:18:52;101743.25;;;10.09;95.98
81641;BME280;74020;50.722;-1.944;2024-01-30T02:21:18;101745.54;;;10.06;94.61
81641;BME280;74020;50.722;-1.944;2024-01-30T02:23:44;101760.17;;;9.83;96.27
81641;BME280;74020;50.722;-1.944;2024-01-30T02:26:09;101765.70;;;9.64;97.06
81641;BME280;74020;50.722;-1.944;2024-01-30T02:28:35;101769.23;;;9.53;96.88
81641;BME280;74020;50.722;-1.944;2024-01-30T02:30:59;101774.01;;;9.67;95.55
81641;BME280;74020;50.722;-1.944;2024-01-30T02:33:25;101772.83;;;9.66;95.05
81641;BME280;74020;50.722;-1.944;2024-01-30T02:35:50;101773.80;;;9.39;96.59
81641;BME280;74020;50.722;-1.944;2024-01-30T02:38:16;101780.72;;;9.59;95.33
81641;BME280;74020;50.722;-1.944;2024-01-30T02:40:41;101780.03;;;9.51;94.95
81641;BME280;74020;50.722;-1.944;2024-01-30T02:43:07;101781.92;;;9.63;94.65
81641;BME280;74020;50.722;-1.944;2024-01-30T02:45:32;101795.90;;;9.42;95.68
81641;BME280;74020;50.722;-1.944;2024-01-30T02:47:57;101802.51;;;9.62;94.41
81641;BME280;74020;50.722;-1.944;2024-01-30T02:50:23;101808.81;;;9.52;94.52
81641;BME280;74020;50.722;-1.944;2024-01-30T02:52:48;101815.47;;;9.25;96.36
81641;BME280;74020;50.722;-1.944;2024-01-30T02:55:14;101818.02;;;9.50;94.44
81641;BME280;74020;50.722;-1.944;2024-01-30T02:57:39;101818.48;;;9.39;94.55
81641;BME280;74020;50.722;-1.944;2024-01-30T03:00:05;101818.43;;;9.52;93.71
81641;BME280;74020;50.722;-1.944;2024-01-30T03:02:30;101826.28;;;9.43;93.31
81641;BME280;74020;50.722;-1.944;2024-01-30T03:04:55;101828.84;;;9.50;92.67
81641;BME280;74020;50.722;-1.944;2024-01-30T03:07:21;101827.58;;;9.53;91.27
81641;BME280;74020;50.722;-1.944;2024-01-30T03:09:46;101831.12;;;9.45;91.67
81641;BME280;74020;50.722;-1.944;2024-01-30T03:12:12;101834.54;;;9.44;91.64
81641;BME280;74020;50.722;-1.944;2024-01-30T03:14:37;101836.63;;;9.62;91.35
81641;BME280;74020;50.722;-1.944;2024-01-30T03:17:03;101842.49;;;9.26;92.81
81641;BME280;74020;50.722;-1.944;2024-01-30T03:19:28;101854.06;;;9.31;92.60
81641;BME280;74020;50.722;-1.944;2024-01-30T03:21:53;101858.09;;;9.19;92.94
81641;BME280;74020;50.722;-1.944;2024-01-30T03:24:19;101860.69;;;9.32;91.44
81641;BME280;74020;50.722;-1.944;2024-01-30T03:26:44;101870.39;;;9.45;90.30
81641;BME280;74020;50.722;-1.944;2024-01-30T03:29:09;101873.23;;;9.43;90.50
81641;BME280;74020;50.722;-1.944;2024-01-30T03:31:35;101880.51;;;9.48;90.81
81641;BME280;74020;50.722;-1.944;2024-01-30T03:34:01;101875.94;;;9.22;91.33
81641;BME280;74020;50.722;-1.944;2024-01-30T03:36:26;101880.03;;;9.18;92.28
81641;BME280;74020;50.722;-1.944;2024-01-30T03:38:51;101878.26;;;8.93;93.31
81641;BME280;74020;50.722;-1.944;2024-01-30T03:41:16;101883.56;;;8.97;93.04
81641;BME280;74020;50.722;-1.944;2024-01-30T03:43:42;101884.58;;;8.98;92.86
81641;BME280;74020;50.722;-1.944;2024-01-30T03:46:07;101884.47;;;9.09;92.18
81641;BME280;74020;50.722;-1.944;2024-01-30T03:48:33;101885.72;;;9.04;92.06
81641;BME280;74020;50.722;-1.944;2024-01-30T03:50:58;101894.12;;;9.22;91.07
81641;BME280;74020;50.722;-1.944;2024-01-30T03:53:24;101900.25;;;9.04;92.04
81641;BME280;74020;50.722;-1.944;2024-01-30T03:55:49;101901.30;;;8.75;93.33
81641;BME280;74020;50.722;-1.944;2024-01-30T03:58:14;101904.85;;;9.00;90.94
81641;BME280;74020;50.722;-1.944;2024-01-30T04:00:40;101909.53;;;8.76;91.74
81641;BME280;74020;50.722;-1.944;2024-01-30T04:03:05;101912.10;;;8.81;91.93
81641;BME280;74020;50.722;-1.944;2024-01-30T04:05:31;101912.85;;;9.01;90.78
81641;BME280;74020;50.722;-1.944;2024-01-30T04:07:56;101914.83;;;8.93;92.03
81641;BME280;74020;50.722;-1.944;2024-01-30T04:10:22;101906.77;;;8.73;91.87
81641;BME280;74020;50.722;-1.944;2024-01-30T04:12:47;101904.29;;;8.58;90.40
81641;BME280;74020;50.722;-1.944;2024-01-30T04:15:13;101915.65;;;8.68;90.33
81641;BME280;74020;50.722;-1.944;2024-01-30T04:17:38;101916.40;;;8.72;88.81
81641;BME280;74020;50.722;-1.944;2024-01-30T04:20:04;101934.35;;;8.79;88.27
81641;BME280;74020;50.722;-1.944;2024-01-30T04:22:29;101934.99;;;8.70;90.01
81641;BME280;74020;50.722;-1.944;2024-01-30T04:24:54;101945.81;;;8.67;90.60
81641;BME280;74020;50.722;-1.944;2024-01-30T04:27:20;101948.93;;;8.79;89.72
81641;BME280;74020;50.722;-1.944;2024-01-30T04:29:45;101943.16;;;8.76;89.08
81641;BME280;74020;50.722;-1.944;2024-01-30T04:32:11;101945.43;;;8.73;87.32
81641;BME280;74020;50.722;-1.944;2024-01-30T04:34:36;101952.14;;;8.57;87.78
81641;BME280;74020;50.722;-1.944;2024-01-30T04:37:01;101962.47;;;8.49;87.94
81641;BME280;74020;50.722;-1.944;2024-01-30T04:39:27;101962.56;;;8.60;86.94
81641;BME280;74020;50.722;-1.944;2024-01-30T04:41:52;101952.58;;;8.75;87.05
81641;BME280;74020;50.722;-1.944;2024-01-30T04:44:18;101959.01;;;8.72;86.83
81641;BME280;74020;50.722;-1.944;2024-01-30T04:46:43;101975.18;;;8.43;88.48
81641;BME280;74020;50.722;-1.944;2024-01-30T04:49:09;101984.37;;;8.61;87.17
81641;BME280;74020;50.722;-1.944;2024-01-30T04:51:34;101977.46;;;8.70;86.53
81641;BME280;74020;50.722;-1.944;2024-01-30T04:53:59;101966.49;;;8.64;86.50
81641;BME280;74020;50.722;-1.944;2024-01-30T04:56:25;101969.35;;;8.38;88.44
81641;BME280;74020;50.722;-1.944;2024-01-30T04:58:51;101966.55;;;8.62;87.37
81641;BME280;74020;50.722;-1.944;2024-01-30T05:01:16;101966.81;;;8.64;86.40
81641;BME280;74020;50.722;-1.944;2024-01-30T05:03:41;101977.10;;;8.45;87.75
81641;BME280;74020;50.722;-1.944;2024-01-30T05:06:07;101982.68;;;8.36;87.88
81641;BME280;74020;50.722;-1.944;2024-01-30T05:08:32;101988.17;;;8.45;87.64
81641;BME280;74020;50.722;-1.944;2024-01-30T05:11:00;101990.20;;;8.27;88.76
81641;BME280;74020;50.722;-1.944;2024-01-30T05:13:23;101999.46;;;8.24;88.34
81641;BME280;74020;50.722;-1.944;2024-01-30T05:15:49;102011.72;;;8.34;87.80
81641;BME280;74020;50.722;-1.944;2024-01-30T05:18:14;102012.78;;;8.29;87.76
81641;BME280;74020;50.722;-1.944;2024-01-30T05:20:39;102018.96;;;8.24;87.91
81641;BME280;74020;50.722;-1.944;2024-01-30T05:23:05;102023.36;;;8.31;88.43
81641;BME280;74020;50.722;-1.944;2024-01-30T05:25:30;102015.58;;;8.32;88.16
81641;BME280;74020;50.722;-1.944;2024-01-30T05:27:56;102023.84;;;8.16;89.85
81641;BME280;74020;50.722;-1.944;2024-01-30T05:30:21;102014.54;;;8.28;88.83
81641;BME280;74020;50.722;-1.944;2024-01-30T05:32:47;102018.67;;;8.24;88.56
81641;BME280;74020;50.722;-1.944;2024-01-30T05:35:15;102027.81;;;8.23;88.78
81641;BME280;74020;50.722;-1.944;2024-01-30T05:37:38;102027.70;;;8.12;89.45
81641;BME280;74020;50.722;-1.944;2024-01-30T05:40:04;102033.66;;;8.11;89.39
81641;BME280;74020;50.722;-1.944;2024-01-30T05:42:29;102036.63;;;8.29;88.14
81641;BME280;74020;50.722;-1.944;2024-01-30T05:44:54;102040.67;;;8.17;88.58
81641;BME280;74020;50.722;-1.944;2024-01-30T05:47:20;102043.25;;;8.17;88.66
81641;BME280;74020;50.722;-1.944;2024-01-30T05:49:45;102050.30;;;8.25;88.47
81641;BME280;74020;50.722;-1.944;2024-01-30T05:52:10;102054.46;;;8.23;88.41
81641;BME280;74020;50.722;-1.944;2024-01-30T05:54:36;102060.05;;;8.29;88.03
81641;BME280;74020;50.722;-1.944;2024-01-30T05:57:02;102066.19;;;8.34;87.90
81641;BME280;74020;50.722;-1.944;2024-01-30T05:59:27;102058.82;;;8.48;87.15
81641;BME280;74020;50.722;-1.944;2024-01-30T06:01:52;102069.57;;;8.46;86.80
81641;BME280;74020;50.722;-1.944;2024-01-30T06:04:18;102076.49;;;8.42;87.06
81641;BME280;74020;50.722;-1.944;2024-01-30T06:06:43;102075.21;;;8.25;87.56
81641;BME280;74020;50.722;-1.944;2024-01-30T06:09:09;102079.17;;;8.30;87.28
81641;BME280;74020;50.722;-1.944;2024-01-30T06:11:34;102084.75;;;8.34;87.12
81641;BME280;74020;50.722;-1.944;2024-01-30T06:14:00;102083.79;;;8.12;89.31
81641;BME280;74020;50.722;-1.944;2024-01-30T06:16:25;102088.16;;;8.42;87.21
81641;BME280;74020;50.722;-1.944;2024-01-30T06:18:51;102092.43;;;8.28;87.37
81641;BME280;74020;50.722;-1.944;2024-01-30T06:21:16;102100.45;;;8.45;86.72
81641;BME280;74020;50.722;-1.944;2024-01-30T06:23:42;102105.00;;;8.23;87.63
81641;BME280;74020;50.722;-1.944;2024-01-30T06:26:07;102103.63;;;8.39;86.70
81641;BME280;74020;50.722;-1.944;2024-01-30T06:28:32;102104.77;;;8.23;88.13
81641;BME280;74020;50.722;-1.944;2024-01-30T06:30:58;102115.83;;;8.19;88.60
81641;BME280;74020;50.722;-1.944;2024-01-30T06:33:23;102120.81;;;8.19;89.17
81641;BME280;74020;50.722;-1.944;2024-01-30T06:35:49;102123.35;;;8.37;88.33
81641;BME280;74020;50.722;-1.944;2024-01-30T06:38:14;102128.63;;;8.28;88.64
81641;BME280;74020;50.722;-1.944;2024-01-30T06:40:41;102131.14;;;8.33;87.99
81641;BME280;74020;50.722;-1.944;2024-01-30T06:43:05;102135.39;;;8.26;88.67
81641;BME280;74020;50.722;-1.944;2024-01-30T06:45:30;102138.43;;;8.24;89.15
81641;BME280;74020;50.722;-1.944;2024-01-30T06:47:56;102149.95;;;8.06;90.43
81641;BME280;74020;50.722;-1.944;2024-01-30T06:50:21;102155.63;;;8.09;89.86
81641;BME280;74020;50.722;-1.944;2024-01-30T06:52:47;102163.44;;;8.36;88.57
81641;BME280;74020;50.722;-1.944;2024-01-30T06:55:13;102168.54;;;8.10;90.14
81641;BME280;74020;50.722;-1.944;2024-01-30T06:57:38;102166.85;;;8.10;90.28
81641;BME280;74020;50.722;-1.944;2024-01-30T07:00:04;102168.58;;;8.18;89.84
81641;BME280;74020;50.722;-1.944;2024-01-30T07:02:28;102167.17;;;8.28;89.57
81641;BME280;74020;50.722;-1.944;2024-01-30T07:04:54;102170.59;;;8.16;90.17
81641;BME280;74020;50.722;-1.944;2024-01-30T07:07:19;102177.93;;;8.22;89.91
81641;BME280;74020;50.722;-1.944;2024-01-30T07:09:45;102182.49;;;8.11;90.89
81641;BME280;74020;50.722;-1.944;2024-01-30T07:12:10;102188.54;;;8.31;90.33
81641;BME280;74020;50.722;-1.944;2024-01-30T07:14:36;102190.69;;;8.31;90.13
81641;BME280;74020;50.722;-1.944;2024-01-30T07:17:01;102194.52;;;8.33;90.41
81641;BME280;74020;50.722;-1.944;2024-01-30T07:19:26;102193.89;;;8.14;91.55
81641;BME280;74020;50.722;-1.944;2024-01-30T07:21:52;102200.00;;;8.24;89.96
81641;BME280;74020;50.722;-1.944;2024-01-30T07:24:18;102204.25;;;8.06;91.93
81641;BME280;74020;50.722;-1.944;2024-01-30T07:26:43;102210.16;;;7.95;91.66
81641;BME280;74020;50.722;-1.944;2024-01-30T07:29:08;102211.11;;;7.99;91.20
81641;BME280;74020;50.722;-1.944;2024-01-30T07:31:34;102211.86;;;8.21;90.41
81641;BME280;74020;50.722;-1.944;2024-01-30T07:33:59;102222.10;;;8.01;90.80
81641;BME280;74020;50.722;-1.944;2024-01-30T07:36:25;102219.21;;;8.03;91.12
81641;BME280;74020;50.722;-1.944;2024-01-30T07:38:52;102227.78;;;8.11;90.31
81641;BME280;74020;50.722;-1.944;2024-01-30T07:41:16;102235.35;;;7.87;91.91
81641;BME280;74020;50.722;-1.944;2024-01-30T07:43:43;102241.72;;;8.07;90.32
81641;BME280;74020;50.722;-1.944;2024-01-30T07:46:07;102244.33;;;7.99;91.06
81641;BME280;74020;50.722;-1.944;2024-01-30T07:48:33;102244.37;;;8.03;90.77
81641;BME280;74020;50.722;-1.944;2024-01-30T07:50:58;102251.21;;;8.16;90.24
81641;BME280;74020;50.722;-1.944;2024-01-30T07:53:24;102251.16;;;8.04;91.49
81641;BME280;74020;50.722;-1.944;2024-01-30T07:55:49;102252.92;;;8.17;90.57
81641;BME280;74020;50.722;-1.944;2024-01-30T07:58:14;102256.63;;;8.12;90.07
81641;BME280;74020;50.722;-1.944;2024-01-30T08:00:40;102258.56;;;8.27;88.64
81641;BME280;74020;50.722;-1.944;2024-01-30T08:03:06;102269.61;;;8.07;90.51
81641;BME280;74020;50.722;-1.944;2024-01-30T08:05:31;102273.18;;;8.28;88.81
81641;BME280;74020;50.722;-1.944;2024-01-30T08:07:56;102273.46;;;8.11;89.28
81641;BME280;74020;50.722;-1.944;2024-01-30T08:10:22;102276.26;;;8.10;89.13
81641;BME280;74020;50.722;-1.944;2024-01-30T08:12:47;102281.45;;;8.24;87.87
81641;BME280;74020;50.722;-1.944;2024-01-30T08:15:13;102285.37;;;8.13;88.67
81641;BME280;74020;50.722;-1.944;2024-01-30T08:17:38;102288.75;;;8.32;87.67
81641;BME280;74020;50.722;-1.944;2024-01-30T08:20:04;102296.79;;;8.32;87.15
81641;BME280;74020;50.722;-1.944;2024-01-30T08:22:29;102297.95;;;8.00;87.86
81641;BME280;74020;50.722;-1.944;2024-01-30T08:24:54;102308.95;;;8.07;87.19
81641;BME280;74020;50.722;-1.944;2024-01-30T08:27:20;102309.97;;;8.02;87.04
81641;BME280;74020;50.722;-1.944;2024-01-30T08:29:45;102310.25;;;7.93;87.74
81641;BME280;74020;50.722;-1.944;2024-01-30T08:32:11;102315.56;;;7.92;87.35
81641;BME280;74020;50.722;-1.944;2024-01-30T08:34:36;102314.15;;;8.24;86.16
81641;BME280;74020;50.722;-1.944;2024-01-30T08:37:02;102315.89;;;8.26;84.95
81641;BME280;74020;50.722;-1.944;2024-01-30T08:39:27;102325.50;;;8.18;84.82
81641;BME280;74020;50.722;-1.944;2024-01-30T08:41:53;102330.16;;;8.17;84.25
81641;BME280;74020;50.722;-1.944;2024-01-30T08:44:19;102327.13;;;8.13;84.17
81641;BME280;74020;50.722;-1.944;2024-01-30T08:46:44;102332.60;;;8.21;84.63
81641;BME280;74020;50.722;-1.944;2024-01-30T08:49:09;102339.80;;;8.12;85.81
81641;BME280;74020;50.722;-1.944;2024-01-30T08:51:34;102344.97;;;8.22;84.97
81641;BME280;74020;50.722;-1.944;2024-01-30T08:54:00;102350.48;;;8.28;85.01
81641;BME280;74020;50.722;-1.944;2024-01-30T08:56:25;102352.23;;;8.27;85.31
81641;BME280;74020;50.722;-1.944;2024-01-30T08:58:51;102356.72;;;8.24;85.94
81641;BME280;74020;50.722;-1.944;2024-01-30T09:01:16;102359.19;;;8.23;87.05
81641;BME280;74020;50.722;-1.944;2024-01-30T09:03:41;102367.49;;;8.29;86.20
81641;BME280;74020;50.722;-1.944;2024-01-30T09:06:08;102371.07;;;8.30;86.57
81641;BME280;74020;50.722;-1.944;2024-01-30T09:08:32;102374.03;;;8.41;86.73
81641;BME280;74020;50.722;-1.944;2024-01-30T09:10:58;102373.24;;;8.31;87.19
81641;BME280;74020;50.722;-1.944;2024-01-30T09:13:23;102381.77;;;8.42;86.48
81641;BME280;74020;50.722;-1.944;2024-01-30T09:15:49;102387.12;;;8.50;85.69
81641;BME280;74020;50.722;-1.944;2024-01-30T09:18:14;102388.65;;;8.30;87.20
81641;BME280;74020;50.722;-1.944;2024-01-30T09:20:40;102389.00;;;8.46;85.70
81641;BME280;74020;50.722;-1.944;2024-01-30T09:23:05;102385.79;;;8.19;87.16
81641;BME280;74020;50.722;-1.944;2024-01-30T09:25:30;102386.01;;;8.28;86.97
81641;BME280;74020;50.722;-1.944;2024-01-30T09:27:56;102387.93;;;8.30;86.10
81641;BME280;74020;50.722;-1.944;2024-01-30T09:30:21;102402.36;;;8.36;85.55
81641;BME280;74020;50.722;-1.944;2024-01-30T09:32:47;102410.61;;;8.26;86.33
81641;BME280;74020;50.722;-1.944;2024-01-30T09:35:12;102410.38;;;8.15;86.67
81641;BME280;74020;50.722;-1.944;2024-01-30T09:37:39;102422.17;;;8.18;85.77
81641;BME280;74020;50.722;-1.944;2024-01-30T09:40:04;102419.53;;;8.22;84.77
81641;BME280;74020;50.722;-1.944;2024-01-30T09:42:34;102426.32;;;8.24;84.69
81641;BME280;74020;50.722;-1.944;2024-01-30T09:44:54;102424.54;;;8.29;84.48
81641;BME280;74020;50.722;-1.944;2024-01-30T09:47:20;102431.60;;;8.37;84.49
81641;BME280;74020;50.722;-1.944;2024-01-30T09:49:46;102440.93;;;8.52;82.51
81641;BME280;74020;50.722;-1.944;2024-01-30T09:52:11;102447.39;;;8.57;82.10
81641;BME280;74020;50.722;-1.944;2024-01-30T09:54:36;102454.80;;;8.61;80.63
81641;BME280;74020;50.722;-1.944;2024-01-30T09:57:02;102455.90;;;8.61;80.64
81641;BME280;74020;50.722;-1.944;2024-01-30T09:59:27;102462.36;;;8.85;79.37
81641;BME280;74020;50.722;-1.944;2024-01-30T10:01:52;102461.54;;;8.71;80.19
81641;BME280;74020;50.722;-1.944;2024-01-30T10:04:18;102465.49;;;8.73;78.89
81641;BME280;74020;50.722;-1.944;2024-01-30T10:06:44;102470.04;;;8.75;78.96
81641;BME280;74020;50.722;-1.944;2024-01-30T10:09:09;102471.08;;;8.70;75.59
81641;BME280;74020;50.722;-1.944;2024-01-30T10:11:34;102479.60;;;8.78;74.83
81641;BME280;74020;50.722;-1.944;2024-01-30T10:14:00;102486.11;;;8.72;76.10
81641;BME280;74020;50.722;-1.944;2024-01-30T10:16:25;102487.29;;;8.88;75.77
81641;BME280;74020;50.722;-1.944;2024-01-30T10:18:50;102485.95;;;8.89;74.81
81641;BME280;74020;50.722;-1.944;2024-01-30T10:21:16;102488.16;;;8.91;73.79
81641;BME280;74020;50.722;-1.944;2024-01-30T10:23:43;102490.97;;;8.87;73.91
81641;BME280;74020;50.722;-1.944;2024-01-30T10:26:07;102492.36;;;8.53;75.67
81641;BME280;74020;50.722;-1.944;2024-01-30T10:28:32;102503.83;;;8.88;73.78
81641;BME280;74020;50.722;-1.944;2024-01-30T10:30:58;102511.70;;;9.00;72.85
81641;BME280;74020;50.722;-1.944;2024-01-30T10:33:23;102519.36;;;8.80;74.29
81641;BME280;74020;50.722;-1.944;2024-01-30T10:35:49;102516.88;;;8.75;73.58
81641;BME280;74020;50.722;-1.944;2024-01-30T10:38:15;102521.51;;;8.63;74.43
81641;BME280;74020;50.722;-1.944;2024-01-30T10:40:40;102523.74;;;8.76;73.73
81641;BME280;74020;50.722;-1.944;2024-01-30T10:43:06;102524.71;;;8.55;74.71
81641;BME280;74020;50.722;-1.944;2024-01-30T10:45:31;102525.86;;;8.73;74.14
81641;BME280;74020;50.722;-1.944;2024-01-30T10:47:57;102534.84;;;8.50;74.67
81641;BME280;74020;50.722;-1.944;2024-01-30T10:50:24;102537.05;;;8.80;73.62
81641;BME280;74020;50.722;-1.944;2024-01-30T10:52:47;102538.77;;;8.87;72.76
81641;BME280;74020;50.722;-1.944;2024-01-30T10:55:13;102542.29;;;8.86;73.40
81641;BME280;74020;50.722;-1.944;2024-01-30T10:57:38;102550.56;;;8.91;72.96
81641;BME280;74020;50.722;-1.944;2024-01-30T11:00:06;102554.46;;;9.04;72.22
81641;BME280;74020;50.722;-1.944;2024-01-30T11:02:29;102554.15;;;9.04;72.56
81641;BME280;74020;50.722;-1.944;2024-01-30T11:04:56;102556.84;;;8.97;73.07
81641;BME280;74020;50.722;-1.944;2024-01-30T11:07:25;102559.10;;;8.81;73.77
81641;BME280;74020;50.722;-1.944;2024-01-30T11:09:50;102561.31;;;9.01;72.33
81641;BME280;74020;50.722;-1.944;2024-01-30T11:12:12;102562.23;;;9.04;72.53
81641;BME280;74020;50.722;-1.944;2024-01-30T11:14:38;102565.50;;;9.16;72.26
81641;BME280;74020;50.722;-1.944;2024-01-30T11:17:03;102561.22;;;9.25;71.75
81641;BME280;74020;50.722;-1.944;2024-01-30T11:19:30;102555.99;;;9.10;72.80
81641;BME280;74020;50.722;-1.944;2024-01-30T11:21:53;102557.22;;;9.00;72.43
81641;BME280;74020;50.722;-1.944;2024-01-30T11:24:18;102555.98;;;9.00;72.80
81641;BME280;74020;50.722;-1.944;2024-01-30T11:26:43;102556.55;;;8.74;74.93
81641;BME280;74020;50.722;-1.944;2024-01-30T11:29:08;102567.19;;;9.16;72.87
81641;BME280;74020;50.722;-1.944;2024-01-30T11:31:33;102563.45;;;9.06;73.81
81641;BME280;74020;50.722;-1.944;2024-01-30T11:33:59;102564.57;;;9.08;73.95
81641;BME280;74020;50.722;-1.944;2024-01-30T11:36:26;102566.99;;;8.98;74.74
81641;BME280;74020;50.722;-1.944;2024-01-30T11:38:50;102568.21;;;9.23;73.52
81641;BME280;74020;50.722;-1.944;2024-01-30T11:41:16;102563.52;;;9.25;73.66
81641;BME280;74020;50.722;-1.944;2024-01-30T11:43:41;102561.37;;;9.50;73.22
81641;BME280;74020;50.722;-1.944;2024-01-30T11:46:07;102557.91;;;9.51;72.52
81641;BME280;74020;50.722;-1.944;2024-01-30T11:48:32;102570.35;;;9.36;73.38
81641;BME280;74020;50.722;-1.944;2024-01-30T11:50:57;102566.16;;;9.57;71.24
81641;BME280;74020;50.722;-1.944;2024-01-30T11:53:22;102566.95;;;9.63;70.94
81641;BME280;74020;50.722;-1.944;2024-01-30T11:55:50;102558.74;;;9.61;72.45
81641;BME280;74020;50.722;-1.944;2024-01-30T11:58:13;102557.93;;;9.71;71.99
81641;BME280;74020;50.722;-1.944;2024-01-30T12:00:39;102562.63;;;9.56;73.33
81641;BME280;74020;50.722;-1.944;2024-01-30T12:03:04;102561.14;;;9.71;71.75
81641;BME280;74020;50.722;-1.944;2024-01-30T12:05:30;102568.51;;;9.44;73.65
81641;BME280;74020;50.722;-1.944;2024-01-30T12:07:55;102565.75;;;9.83;71.21
81641;BME280;74020;50.722;-1.944;2024-01-30T12:10:21;102564.21;;;9.86;70.68
81641;BME280;74020;50.722;-1.944;2024-01-30T12:12:47;102568.46;;;9.56;72.32
81641;BME280;74020;50.722;-1.944;2024-01-30T12:15:12;102560.51;;;9.80;71.49
81641;BME280;74020;50.722;-1.944;2024-01-30T12:17:37;102559.78;;;9.42;73.42
81641;BME280;74020;50.722;-1.944;2024-01-30T12:20:04;102565.64;;;9.50;72.24
81641;BME280;74020;50.722;-1.944;2024-01-30T12:22:27;102573.10;;;9.70;70.28
81641;BME280;74020;50.722;-1.944;2024-01-30T12:24:53;102570.40;;;9.71;70.67
81641;BME280;74020;50.722;-1.944;2024-01-30T12:27:18;102569.52;;;9.71;69.77
81641;BME280;74020;50.722;-1.944;2024-01-30T12:29:44;102565.15;;;9.55;70.43
81641;BME280;74020;50.722;-1.944;2024-01-30T12:32:15;102564.95;;;9.65;70.82
81641;BME280;74020;50.722;-1.944;2024-01-30T12:34:40;102566.12;;;9.37;73.52
81641;BME280;74020;50.722;-1.944;2024-01-30T12:37:00;102560.98;;;9.61;71.08